sensor_id;sensor_type;location;lat;lon;timestamp;P1;durP1;ratioP1;P2;durP2;ratioP2
9938;SDS011;5008;50.656;7.188;2022-07-22T00:00:55;6.20;;;5.22;;
9938;SDS011;5008;50.656;7.188;2022-07-22T00:03:22;6.45;;;5.60;;
9938;SDS011;5008;50.656;7.188;2022-07-22T00:05:49;8.32;;;6.40;;
9938;SDS011;5008;50.656;7.188;2022-07-22T00:08:15;6.50;;;5.90;;
9938;SDS011;5008;50.656;7.188;2022-07-22T00:10:42;9.70;;;6.25;;
9938;SDS011;5008;50.656;7.188;2022-07-22T00:13:09;6.55;;;5.95;;
9938;SDS011;5008;50.656;7.188;2022-07-22T00:15:36;6.25;;;5.65;;
9938;SDS011;5008;50.656;7.188;2022-07-22T00:18:04;8.13;;;6.05;;
9938;SDS011;5008;50.656;7.188;2022-07-22T00:20:31;6.68;;;6.05;;
9938;SDS011;5008;50.656;7.188;2022-07-22T00:22:58;7.72;;;6.30;;
9938;SDS011;5008;50.656;7.188;2022-07-22T00:25:25;6.93;;;6.18;;
9938;SDS011;5008;50.656;7.188;2022-07-22T00:27:53;6.68;;;6.07;;
9938;SDS011;5008;50.656;7.188;2022-07-22T00:30:20;6.68;;;5.97;;
9938;SDS011;5008;50.656;7.188;2022-07-22T00:32:47;6.38;;;5.78;;
9938;SDS011;5008;50.656;7.188;2022-07-22T00:35:15;7.93;;;6.30;;
9938;SDS011;5008;50.656;7.188;2022-07-22T00:37:42;6.40;;;5.82;;
9938;SDS011;5008;50.656;7.188;2022-07-22T00:40:09;6.20;;;5.57;;
9938;SDS011;5008;50.656;7.188;2022-07-22T00:42:36;8.02;;;6.20;;
9938;SDS011;5008;50.656;7.188;2022-07-22T00:45:04;6.65;;;5.93;;
9938;SDS011;5008;50.656;7.188;2022-07-22T00:47:31;7.35;;;6.63;;
9938;SDS011;5008;50.656;7.188;2022-07-22T00:49:58;7.45;;;6.05;;
9938;SDS011;5008;50.656;7.188;2022-07-22T00:52:27;7.50;;;6.47;;
9938;SDS011;5008;50.656;7.188;2022-07-22T00:54:54;6.40;;;5.80;;
9938;SDS011;5008;50.656;7.188;2022-07-22T00:57:22;7.72;;;6.05;;
9938;SDS011;5008;50.656;7.188;2022-07-22T00:59:49;7.07;;;6.03;;
9938;SDS011;5008;50.656;7.188;2022-07-22T01:02:15;6.15;;;5.45;;
9938;SDS011;5008;50.656;7.188;2022-07-22T01:04:42;7.00;;;5.65;;
9938;SDS011;5008;50.656;7.188;2022-07-22T01:07:09;5.88;;;5.28;;
9938;SDS011;5008;50.656;7.188;2022-07-22T01:09:38;6.88;;;5.85;;
9938;SDS011;5008;50.656;7.188;2022-07-22T01:12:08;7.50;;;5.85;;
9938;SDS011;5008;50.656;7.188;2022-07-22T01:14:35;7.68;;;5.93;;
9938;SDS011;5008;50.656;7.188;2022-07-22T01:17:02;5.72;;;5.22;;
9938;SDS011;5008;50.656;7.188;2022-07-22T01:19:29;8.15;;;6.65;;
9938;SDS011;5008;50.656;7.188;2022-07-22T01:21:57;7.20;;;5.82;;
9938;SDS011;5008;50.656;7.188;2022-07-22T01:24:24;7.88;;;6.28;;
9938;SDS011;5008;50.656;7.188;2022-07-22T01:26:51;7.07;;;6.38;;
9938;SDS011;5008;50.656;7.188;2022-07-22T01:29:18;6.82;;;5.72;;
9938;SDS011;5008;50.656;7.188;2022-07-22T01:31:45;7.40;;;5.90;;
9938;SDS011;5008;50.656;7.188;2022-07-22T01:34:12;6.50;;;5.90;;
9938;SDS011;5008;50.656;7.188;2022-07-22T01:36:38;7.78;;;5.43;;
9938;SDS011;5008;50.656;7.188;2022-07-22T01:39:07;6.20;;;5.63;;
9938;SDS011;5008;50.656;7.188;2022-07-22T01:41:33;7.80;;;5.90;;
9938;SDS011;5008;50.656;7.188;2022-07-22T01:44:00;7.30;;;5.97;;
9938;SDS011;5008;50.656;7.188;2022-07-22T01:46:28;6.90;;;6.13;;
9938;SDS011;5008;50.656;7.188;2022-07-22T01:51:27;7.95;;;6.53;;
9938;SDS011;5008;50.656;7.188;2022-07-22T01:53:54;10.93;;;7.07;;
9938;SDS011;5008;50.656;7.188;2022-07-22T01:56:22;7.93;;;6.40;;
9938;SDS011;5008;50.656;7.188;2022-07-22T01:58:49;10.63;;;6.35;;
9938;SDS011;5008;50.656;7.188;2022-07-22T02:01:16;7.88;;;6.13;;
9938;SDS011;5008;50.656;7.188;2022-07-22T02:03:43;8.27;;;6.03;;
9938;SDS011;5008;50.656;7.188;2022-07-22T02:06:09;8.48;;;5.82;;
9938;SDS011;5008;50.656;7.188;2022-07-22T02:08:36;6.85;;;5.47;;
9938;SDS011;5008;50.656;7.188;2022-07-22T02:11:03;6.72;;;5.35;;
9938;SDS011;5008;50.656;7.188;2022-07-22T02:13:31;8.70;;;6.00;;
9938;SDS011;5008;50.656;7.188;2022-07-22T02:15:58;8.00;;;6.22;;
9938;SDS011;5008;50.656;7.188;2022-07-22T02:18:25;8.18;;;4.85;;
9938;SDS011;5008;50.656;7.188;2022-07-22T02:20:52;5.97;;;5.38;;
9938;SDS011;5008;50.656;7.188;2022-07-22T02:23:19;6.03;;;5.38;;
9938;SDS011;5008;50.656;7.188;2022-07-22T02:25:46;6.20;;;5.32;;
9938;SDS011;5008;50.656;7.188;2022-07-22T02:28:13;8.10;;;5.25;;
9938;SDS011;5008;50.656;7.188;2022-07-22T02:30:41;6.95;;;5.18;;
9938;SDS011;5008;50.656;7.188;2022-07-22T02:33:07;5.88;;;5.30;;
9938;SDS011;5008;50.656;7.188;2022-07-22T02:35:34;5.38;;;4.88;;
9938;SDS011;5008;50.656;7.188;2022-07-22T02:38:01;6.60;;;5.03;;
9938;SDS011;5008;50.656;7.188;2022-07-22T02:40:28;7.93;;;5.88;;
9938;SDS011;5008;50.656;7.188;2022-07-22T02:42:55;6.45;;;5.65;;
9938;SDS011;5008;50.656;7.188;2022-07-22T02:45:22;8.52;;;5.65;;
9938;SDS011;5008;50.656;7.188;2022-07-22T02:50:32;7.22;;;5.40;;
9938;SDS011;5008;50.656;7.188;2022-07-22T02:52:59;6.32;;;5.47;;
9938;SDS011;5008;50.656;7.188;2022-07-22T02:55:26;6.22;;;5.63;;
9938;SDS011;5008;50.656;7.188;2022-07-22T02:57:53;8.18;;;6.97;;
9938;SDS011;5008;50.656;7.188;2022-07-22T03:00:20;8.20;;;6.50;;
9938;SDS011;5008;50.656;7.188;2022-07-22T03:02:47;7.63;;;6.88;;
9938;SDS011;5008;50.656;7.188;2022-07-22T03:05:15;9.73;;;7.35;;
9938;SDS011;5008;50.656;7.188;2022-07-22T03:07:42;11.50;;;7.63;;
9938;SDS011;5008;50.656;7.188;2022-07-22T03:10:08;7.80;;;7.00;;
9938;SDS011;5008;50.656;7.188;2022-07-22T03:12:35;7.88;;;6.68;;
9938;SDS011;5008;50.656;7.188;2022-07-22T03:15:03;7.97;;;7.03;;
9938;SDS011;5008;50.656;7.188;2022-07-22T03:17:32;8.40;;;6.95;;
9938;SDS011;5008;50.656;7.188;2022-07-22T03:20:01;8.25;;;7.07;;
9938;SDS011;5008;50.656;7.188;2022-07-22T03:22:30;8.23;;;7.47;;
9938;SDS011;5008;50.656;7.188;2022-07-22T03:24:57;8.48;;;7.65;;
9938;SDS011;5008;50.656;7.188;2022-07-22T03:27:24;8.05;;;7.20;;
9938;SDS011;5008;50.656;7.188;2022-07-22T03:32:32;7.43;;;6.40;;
9938;SDS011;5008;50.656;7.188;2022-07-22T03:34:59;8.63;;;7.57;;
9938;SDS011;5008;50.656;7.188;2022-07-22T03:37:26;9.02;;;7.22;;
9938;SDS011;5008;50.656;7.188;2022-07-22T03:39:54;9.38;;;7.05;;
9938;SDS011;5008;50.656;7.188;2022-07-22T03:42:21;8.73;;;7.78;;
9938;SDS011;5008;50.656;7.188;2022-07-22T03:44:48;9.05;;;7.88;;
9938;SDS011;5008;50.656;7.188;2022-07-22T03:47:17;9.63;;;8.35;;
9938;SDS011;5008;50.656;7.188;2022-07-22T03:49:45;9.38;;;8.07;;
9938;SDS011;5008;50.656;7.188;2022-07-22T03:52:11;9.63;;;8.60;;
9938;SDS011;5008;50.656;7.188;2022-07-22T03:54:39;9.50;;;8.35;;
9938;SDS011;5008;50.656;7.188;2022-07-22T03:57:07;9.57;;;8.57;;
9938;SDS011;5008;50.656;7.188;2022-07-22T03:59:34;9.80;;;8.80;;
9938;SDS011;5008;50.656;7.188;2022-07-22T04:02:01;9.10;;;8.23;;
9938;SDS011;5008;50.656;7.188;2022-07-22T04:04:28;11.38;;;8.43;;
9938;SDS011;5008;50.656;7.188;2022-07-22T04:06:55;9.18;;;8.15;;
9938;SDS011;5008;50.656;7.188;2022-07-22T04:09:35;9.60;;;8.55;;
9938;SDS011;5008;50.656;7.188;2022-07-22T04:12:02;8.95;;;8.07;;
9938;SDS011;5008;50.656;7.188;2022-07-22T04:14:31;8.40;;;7.40;;
9938;SDS011;5008;50.656;7.188;2022-07-22T04:16:58;9.23;;;8.25;;
9938;SDS011;5008;50.656;7.188;2022-07-22T04:19:25;8.30;;;7.43;;
9938;SDS011;5008;50.656;7.188;2022-07-22T04:21:51;9.32;;;8.10;;
9938;SDS011;5008;50.656;7.188;2022-07-22T04:24:18;9.27;;;7.72;;
9938;SDS011;5008;50.656;7.188;2022-07-22T04:26:45;9.02;;;8.05;;
9938;SDS011;5008;50.656;7.188;2022-07-22T04:29:12;8.52;;;7.63;;
9938;SDS011;5008;50.656;7.188;2022-07-22T04:31:40;9.85;;;7.47;;
9938;SDS011;5008;50.656;7.188;2022-07-22T04:34:07;9.00;;;7.40;;
9938;SDS011;5008;50.656;7.188;2022-07-22T04:36:34;7.55;;;6.85;;
9938;SDS011;5008;50.656;7.188;2022-07-22T04:41:50;7.22;;;6.32;;
9938;SDS011;5008;50.656;7.188;2022-07-22T04:44:17;7.07;;;6.38;;
9938;SDS011;5008;50.656;7.188;2022-07-22T04:46:45;9.20;;;6.38;;
9938;SDS011;5008;50.656;7.188;2022-07-22T04:49:12;7.60;;;6.80;;
9938;SDS011;5008;50.656;7.188;2022-07-22T04:51:38;8.07;;;6.40;;
9938;SDS011;5008;50.656;7.188;2022-07-22T04:54:05;7.05;;;6.13;;
9938;SDS011;5008;50.656;7.188;2022-07-22T04:59:45;6.55;;;5.95;;
9938;SDS011;5008;50.656;7.188;2022-07-22T05:02:13;6.82;;;6.13;;
9938;SDS011;5008;50.656;7.188;2022-07-22T05:04:40;6.85;;;6.00;;
9938;SDS011;5008;50.656;7.188;2022-07-22T05:07:06;6.35;;;5.75;;
9938;SDS011;5008;50.656;7.188;2022-07-22T05:09:33;6.55;;;5.80;;
9938;SDS011;5008;50.656;7.188;2022-07-22T05:12:15;6.75;;;5.80;;
9938;SDS011;5008;50.656;7.188;2022-07-22T05:14:42;10.15;;;5.97;;
9938;SDS011;5008;50.656;7.188;2022-07-22T05:17:16;7.45;;;5.93;;
9938;SDS011;5008;50.656;7.188;2022-07-22T05:19:43;6.97;;;5.53;;
9938;SDS011;5008;50.656;7.188;2022-07-22T05:22:11;6.72;;;5.88;;
9938;SDS011;5008;50.656;7.188;2022-07-22T05:24:37;6.38;;;5.40;;
9938;SDS011;5008;50.656;7.188;2022-07-22T05:27:04;6.72;;;5.97;;
9938;SDS011;5008;50.656;7.188;2022-07-22T05:29:31;6.35;;;5.68;;
9938;SDS011;5008;50.656;7.188;2022-07-22T05:31:58;8.30;;;6.03;;
9938;SDS011;5008;50.656;7.188;2022-07-22T05:34:26;7.38;;;6.43;;
9938;SDS011;5008;50.656;7.188;2022-07-22T05:36:53;9.07;;;6.47;;
9938;SDS011;5008;50.656;7.188;2022-07-22T05:39:20;6.20;;;5.65;;
9938;SDS011;5008;50.656;7.188;2022-07-22T05:41:46;10.35;;;6.47;;
9938;SDS011;5008;50.656;7.188;2022-07-22T05:44:13;8.07;;;5.90;;
9938;SDS011;5008;50.656;7.188;2022-07-22T05:46:40;7.50;;;6.00;;
9938;SDS011;5008;50.656;7.188;2022-07-22T05:49:07;6.38;;;5.78;;
9938;SDS011;5008;50.656;7.188;2022-07-22T05:51:35;6.18;;;5.60;;
9938;SDS011;5008;50.656;7.188;2022-07-22T05:54:02;7.15;;;5.78;;
9938;SDS011;5008;50.656;7.188;2022-07-22T05:56:29;6.85;;;6.15;;
9938;SDS011;5008;50.656;7.188;2022-07-22T05:58:56;5.93;;;5.32;;
9938;SDS011;5008;50.656;7.188;2022-07-22T06:01:23;6.10;;;5.55;;
9938;SDS011;5008;50.656;7.188;2022-07-22T06:03:52;8.23;;;5.72;;
9938;SDS011;5008;50.656;7.188;2022-07-22T06:06:18;5.88;;;5.10;;
9938;SDS011;5008;50.656;7.188;2022-07-22T06:08:47;6.72;;;5.72;;
9938;SDS011;5008;50.656;7.188;2022-07-22T06:11:13;7.20;;;5.72;;
9938;SDS011;5008;50.656;7.188;2022-07-22T06:13:40;6.90;;;5.70;;
9938;SDS011;5008;50.656;7.188;2022-07-22T06:16:07;6.72;;;5.70;;
9938;SDS011;5008;50.656;7.188;2022-07-22T06:18:34;7.03;;;5.30;;
9938;SDS011;5008;50.656;7.188;2022-07-22T06:21:01;6.38;;;5.78;;
9938;SDS011;5008;50.656;7.188;2022-07-22T06:23:27;9.15;;;6.53;;
9938;SDS011;5008;50.656;7.188;2022-07-22T06:25:56;6.25;;;5.65;;
9938;SDS011;5008;50.656;7.188;2022-07-22T06:28:22;6.75;;;5.90;;
9938;SDS011;5008;50.656;7.188;2022-07-22T06:30:49;5.80;;;5.30;;
9938;SDS011;5008;50.656;7.188;2022-07-22T06:33:16;5.50;;;5.00;;
9938;SDS011;5008;50.656;7.188;2022-07-22T06:35:43;6.20;;;5.43;;
9938;SDS011;5008;50.656;7.188;2022-07-22T06:38:09;6.45;;;5.75;;
9938;SDS011;5008;50.656;7.188;2022-07-22T06:40:36;5.95;;;5.40;;
9938;SDS011;5008;50.656;7.188;2022-07-22T06:43:04;6.47;;;5.45;;
9938;SDS011;5008;50.656;7.188;2022-07-22T06:45:31;5.50;;;5.00;;
9938;SDS011;5008;50.656;7.188;2022-07-22T06:47:58;6.30;;;5.03;;
9938;SDS011;5008;50.656;7.188;2022-07-22T06:50:25;6.22;;;5.63;;
9938;SDS011;5008;50.656;7.188;2022-07-22T06:52:52;6.45;;;5.40;;
9938;SDS011;5008;50.656;7.188;2022-07-22T06:55:26;6.35;;;5.68;;
9938;SDS011;5008;50.656;7.188;2022-07-22T06:57:53;8.15;;;5.38;;
9938;SDS011;5008;50.656;7.188;2022-07-22T07:00:21;6.90;;;6.25;;
9938;SDS011;5008;50.656;7.188;2022-07-22T07:02:48;6.45;;;5.85;;
9938;SDS011;5008;50.656;7.188;2022-07-22T07:05:30;6.25;;;5.65;;
9938;SDS011;5008;50.656;7.188;2022-07-22T07:07:57;6.57;;;5.97;;
9938;SDS011;5008;50.656;7.188;2022-07-22T07:10:23;6.07;;;5.57;;
9938;SDS011;5008;50.656;7.188;2022-07-22T07:12:51;7.28;;;6.18;;
9938;SDS011;5008;50.656;7.188;2022-07-22T07:15:23;6.85;;;6.13;;
9938;SDS011;5008;50.656;7.188;2022-07-22T07:17:50;7.35;;;6.20;;
9938;SDS011;5008;50.656;7.188;2022-07-22T07:20:17;8.10;;;7.30;;
9938;SDS011;5008;50.656;7.188;2022-07-22T07:22:44;8.85;;;6.80;;
9938;SDS011;5008;50.656;7.188;2022-07-22T07:25:12;8.05;;;7.25;;
9938;SDS011;5008;50.656;7.188;2022-07-22T07:27:39;7.00;;;6.30;;
9938;SDS011;5008;50.656;7.188;2022-07-22T07:30:06;9.40;;;6.65;;
9938;SDS011;5008;50.656;7.188;2022-07-22T07:32:36;7.63;;;6.93;;
9938;SDS011;5008;50.656;7.188;2022-07-22T07:35:17;9.32;;;8.07;;
9938;SDS011;5008;50.656;7.188;2022-07-22T07:37:45;8.38;;;7.40;;
9938;SDS011;5008;50.656;7.188;2022-07-22T07:40:12;10.60;;;9.60;;
9938;SDS011;5008;50.656;7.188;2022-07-22T07:42:39;11.23;;;8.98;;
9938;SDS011;5008;50.656;7.188;2022-07-22T07:45:07;10.55;;;9.15;;
9938;SDS011;5008;50.656;7.188;2022-07-22T07:47:35;9.68;;;8.45;;
9938;SDS011;5008;50.656;7.188;2022-07-22T07:50:03;9.65;;;8.68;;
9938;SDS011;5008;50.656;7.188;2022-07-22T07:52:30;9.68;;;8.52;;
9938;SDS011;5008;50.656;7.188;2022-07-22T07:54:57;10.05;;;9.05;;
9938;SDS011;5008;50.656;7.188;2022-07-22T07:57:24;10.40;;;9.27;;
9938;SDS011;5008;50.656;7.188;2022-07-22T07:59:51;9.02;;;8.13;;
9938;SDS011;5008;50.656;7.188;2022-07-22T08:02:17;8.15;;;7.35;;
9938;SDS011;5008;50.656;7.188;2022-07-22T08:04:46;8.45;;;7.50;;
9938;SDS011;5008;50.656;7.188;2022-07-22T08:07:12;8.68;;;7.85;;
9938;SDS011;5008;50.656;7.188;2022-07-22T08:09:49;9.13;;;8.23;;
9938;SDS011;5008;50.656;7.188;2022-07-22T08:12:16;8.38;;;7.70;;
9938;SDS011;5008;50.656;7.188;2022-07-22T08:14:43;9.13;;;8.23;;
9938;SDS011;5008;50.656;7.188;2022-07-22T08:17:10;8.95;;;8.02;;
9938;SDS011;5008;50.656;7.188;2022-07-22T08:19:37;8.73;;;7.93;;
9938;SDS011;5008;50.656;7.188;2022-07-22T08:22:05;9.25;;;7.97;;
9938;SDS011;5008;50.656;7.188;2022-07-22T08:24:32;8.15;;;7.30;;
9938;SDS011;5008;50.656;7.188;2022-07-22T08:26:59;9.73;;;8.82;;
9938;SDS011;5008;50.656;7.188;2022-07-22T08:29:27;8.75;;;7.88;;
9938;SDS011;5008;50.656;7.188;2022-07-22T08:31:53;8.95;;;8.05;;
9938;SDS011;5008;50.656;7.188;2022-07-22T08:34:20;10.02;;;7.78;;
9938;SDS011;5008;50.656;7.188;2022-07-22T08:36:47;8.75;;;7.95;;
9938;SDS011;5008;50.656;7.188;2022-07-22T08:39:15;8.88;;;8.00;;
9938;SDS011;5008;50.656;7.188;2022-07-22T08:41:42;9.02;;;8.20;;
9938;SDS011;5008;50.656;7.188;2022-07-22T08:44:09;9.32;;;8.38;;
9938;SDS011;5008;50.656;7.188;2022-07-22T08:46:36;8.30;;;7.50;;
9938;SDS011;5008;50.656;7.188;2022-07-22T08:49:12;8.73;;;7.93;;
9938;SDS011;5008;50.656;7.188;2022-07-22T08:51:40;9.30;;;8.50;;
9938;SDS011;5008;50.656;7.188;2022-07-22T08:54:07;9.82;;;8.88;;
9938;SDS011;5008;50.656;7.188;2022-07-22T08:56:35;8.82;;;8.00;;
9938;SDS011;5008;50.656;7.188;2022-07-22T08:59:11;10.02;;;8.15;;
9938;SDS011;5008;50.656;7.188;2022-07-22T09:01:38;6.47;;;5.97;;
9938;SDS011;5008;50.656;7.188;2022-07-22T09:04:29;8.40;;;7.60;;
9938;SDS011;5008;50.656;7.188;2022-07-22T09:06:56;9.05;;;8.25;;
9938;SDS011;5008;50.656;7.188;2022-07-22T09:09:28;8.52;;;7.72;;
9938;SDS011;5008;50.656;7.188;2022-07-22T09:12:05;7.57;;;6.97;;
9938;SDS011;5008;50.656;7.188;2022-07-22T09:14:47;9.13;;;8.32;;
9938;SDS011;5008;50.656;7.188;2022-07-22T09:17:22;8.30;;;7.38;;
9938;SDS011;5008;50.656;7.188;2022-07-22T09:19:54;8.43;;;7.70;;
9938;SDS011;5008;50.656;7.188;2022-07-22T09:22:35;8.73;;;7.70;;
9938;SDS011;5008;50.656;7.188;2022-07-22T09:25:16;8.65;;;7.85;;
9938;SDS011;5008;50.656;7.188;2022-07-22T09:27:45;7.80;;;7.03;;
9938;SDS011;5008;50.656;7.188;2022-07-22T09:30:12;8.18;;;7.50;;
9938;SDS011;5008;50.656;7.188;2022-07-22T09:32:41;8.68;;;7.88;;
9938;SDS011;5008;50.656;7.188;2022-07-22T09:35:09;9.93;;;8.35;;
9938;SDS011;5008;50.656;7.188;2022-07-22T09:37:37;8.50;;;7.80;;
9938;SDS011;5008;50.656;7.188;2022-07-22T09:40:16;7.03;;;6.43;;
9938;SDS011;5008;50.656;7.188;2022-07-22T09:42:46;6.05;;;5.55;;
9938;SDS011;5008;50.656;7.188;2022-07-22T09:45:15;8.45;;;7.70;;
9938;SDS011;5008;50.656;7.188;2022-07-22T09:47:42;9.30;;;8.43;;
9938;SDS011;5008;50.656;7.188;2022-07-22T09:50:13;8.70;;;7.88;;
9938;SDS011;5008;50.656;7.188;2022-07-22T09:52:41;8.55;;;7.47;;
9938;SDS011;5008;50.656;7.188;2022-07-22T09:55:08;8.43;;;7.60;;
9938;SDS011;5008;50.656;7.188;2022-07-22T09:57:35;9.95;;;7.68;;
9938;SDS011;5008;50.656;7.188;2022-07-22T10:00:04;7.95;;;7.25;;
9938;SDS011;5008;50.656;7.188;2022-07-22T10:02:35;8.52;;;7.68;;
9938;SDS011;5008;50.656;7.188;2022-07-22T10:05:06;7.47;;;6.88;;
9938;SDS011;5008;50.656;7.188;2022-07-22T10:07:34;9.02;;;8.05;;
9938;SDS011;5008;50.656;7.188;2022-07-22T10:10:04;8.35;;;7.65;;
9938;SDS011;5008;50.656;7.188;2022-07-22T10:12:36;9.20;;;8.20;;
9938;SDS011;5008;50.656;7.188;2022-07-22T10:15:05;7.20;;;6.53;;
9938;SDS011;5008;50.656;7.188;2022-07-22T10:17:34;9.57;;;8.73;;
9938;SDS011;5008;50.656;7.188;2022-07-22T10:20:10;9.35;;;8.55;;
9938;SDS011;5008;50.656;7.188;2022-07-22T10:22:44;9.13;;;8.32;;
9938;SDS011;5008;50.656;7.188;2022-07-22T10:25:17;9.18;;;8.38;;
9938;SDS011;5008;50.656;7.188;2022-07-22T10:27:46;10.32;;;8.48;;
9938;SDS011;5008;50.656;7.188;2022-07-22T10:33:07;8.43;;;7.72;;
9938;SDS011;5008;50.656;7.188;2022-07-22T10:35:36;9.70;;;8.90;;
9938;SDS011;5008;50.656;7.188;2022-07-22T10:38:18;9.02;;;8.13;;
9938;SDS011;5008;50.656;7.188;2022-07-22T10:40:56;7.72;;;7.03;;
9938;SDS011;5008;50.656;7.188;2022-07-22T10:43:24;9.23;;;8.45;;
9938;SDS011;5008;50.656;7.188;2022-07-22T10:45:53;8.85;;;8.15;;
9938;SDS011;5008;50.656;7.188;2022-07-22T10:48:22;8.50;;;7.70;;
9938;SDS011;5008;50.656;7.188;2022-07-22T10:50:52;8.50;;;7.85;;
9938;SDS011;5008;50.656;7.188;2022-07-22T10:56:13;8.73;;;7.70;;
9938;SDS011;5008;50.656;7.188;2022-07-22T10:58:50;8.52;;;7.80;;
9938;SDS011;5008;50.656;7.188;2022-07-22T11:01:20;11.75;;;8.93;;
9938;SDS011;5008;50.656;7.188;2022-07-22T11:03:49;9.93;;;9.00;;
9938;SDS011;5008;50.656;7.188;2022-07-22T11:06:18;8.65;;;7.95;;
9938;SDS011;5008;50.656;7.188;2022-07-22T11:08:48;9.43;;;8.52;;
9938;SDS011;5008;50.656;7.188;2022-07-22T11:11:16;9.48;;;8.68;;
9938;SDS011;5008;50.656;7.188;2022-07-22T11:16:23;9.05;;;8.25;;
9938;SDS011;5008;50.656;7.188;2022-07-22T11:19:02;9.63;;;8.73;;
9938;SDS011;5008;50.656;7.188;2022-07-22T11:21:36;9.32;;;8.35;;
9938;SDS011;5008;50.656;7.188;2022-07-22T11:24:06;8.77;;;7.97;;
9938;SDS011;5008;50.656;7.188;2022-07-22T11:26:35;8.98;;;8.07;;
9938;SDS011;5008;50.656;7.188;2022-07-22T11:29:15;9.00;;;8.20;;
9938;SDS011;5008;50.656;7.188;2022-07-22T11:31:44;9.13;;;8.02;;
9938;SDS011;5008;50.656;7.188;2022-07-22T11:34:18;7.97;;;7.28;;
9938;SDS011;5008;50.656;7.188;2022-07-22T11:36:47;7.40;;;6.63;;
9938;SDS011;5008;50.656;7.188;2022-07-22T11:39:18;7.30;;;6.70;;
9938;SDS011;5008;50.656;7.188;2022-07-22T11:41:46;7.40;;;6.68;;
9938;SDS011;5008;50.656;7.188;2022-07-22T11:44:17;7.72;;;7.07;;
9938;SDS011;5008;50.656;7.188;2022-07-22T11:46:46;8.45;;;7.70;;
9938;SDS011;5008;50.656;7.188;2022-07-22T11:49:21;6.57;;;6.07;;
9938;SDS011;5008;50.656;7.188;2022-07-22T11:51:48;8.10;;;7.38;;
9938;SDS011;5008;50.656;7.188;2022-07-22T11:54:15;8.38;;;7.63;;
9938;SDS011;5008;50.656;7.188;2022-07-22T11:56:41;7.07;;;6.38;;
9938;SDS011;5008;50.656;7.188;2022-07-22T11:59:11;7.65;;;6.38;;
9938;SDS011;5008;50.656;7.188;2022-07-22T12:01:40;7.20;;;6.60;;
9938;SDS011;5008;50.656;7.188;2022-07-22T12:04:09;7.82;;;7.10;;
9938;SDS011;5008;50.656;7.188;2022-07-22T12:06:38;9.50;;;7.85;;
9938;SDS011;5008;50.656;7.188;2022-07-22T12:09:07;9.13;;;8.20;;
9938;SDS011;5008;50.656;7.188;2022-07-22T12:11:36;7.88;;;7.18;;
9938;SDS011;5008;50.656;7.188;2022-07-22T12:14:05;7.10;;;6.60;;
9938;SDS011;5008;50.656;7.188;2022-07-22T12:16:33;7.95;;;7.35;;
9938;SDS011;5008;50.656;7.188;2022-07-22T12:19:02;7.55;;;6.95;;
9938;SDS011;5008;50.656;7.188;2022-07-22T12:21:33;6.82;;;6.22;;
9938;SDS011;5008;50.656;7.188;2022-07-22T12:24:02;7.75;;;7.15;;
9938;SDS011;5008;50.656;7.188;2022-07-22T12:26:40;7.93;;;7.20;;
9938;SDS011;5008;50.656;7.188;2022-07-22T12:31:57;8.25;;;6.82;;
9938;SDS011;5008;50.656;7.188;2022-07-22T12:34:32;8.10;;;7.40;;
9938;SDS011;5008;50.656;7.188;2022-07-22T12:37:10;8.18;;;7.47;;
9938;SDS011;5008;50.656;7.188;2022-07-22T12:39:39;6.78;;;6.18;;
9938;SDS011;5008;50.656;7.188;2022-07-22T12:42:19;8.02;;;7.43;;
9938;SDS011;5008;50.656;7.188;2022-07-22T12:44:53;9.07;;;8.27;;
9938;SDS011;5008;50.656;7.188;2022-07-22T12:47:37;8.35;;;7.57;;
9938;SDS011;5008;50.656;7.188;2022-07-22T12:50:20;8.65;;;7.95;;
9938;SDS011;5008;50.656;7.188;2022-07-22T12:52:53;8.98;;;8.15;;
9938;SDS011;5008;50.656;7.188;2022-07-22T12:55:21;8.32;;;7.63;;
9938;SDS011;5008;50.656;7.188;2022-07-22T12:57:48;9.27;;;8.48;;
9938;SDS011;5008;50.656;7.188;2022-07-22T13:00:16;9.02;;;8.23;;
9938;SDS011;5008;50.656;7.188;2022-07-22T13:02:43;9.63;;;8.77;;
9938;SDS011;5008;50.656;7.188;2022-07-22T13:05:10;7.90;;;7.20;;
9938;SDS011;5008;50.656;7.188;2022-07-22T13:07:38;9.60;;;8.82;;
9938;SDS011;5008;50.656;7.188;2022-07-22T13:10:07;9.25;;;8.45;;
9938;SDS011;5008;50.656;7.188;2022-07-22T13:12:35;9.60;;;8.80;;
9938;SDS011;5008;50.656;7.188;2022-07-22T13:15:02;10.60;;;9.60;;
9938;SDS011;5008;50.656;7.188;2022-07-22T13:17:29;9.88;;;8.98;;
9938;SDS011;5008;50.656;7.188;2022-07-22T13:19:56;9.27;;;8.38;;
9938;SDS011;5008;50.656;7.188;2022-07-22T13:22:22;9.38;;;8.57;;
9938;SDS011;5008;50.656;7.188;2022-07-22T13:24:50;9.80;;;8.98;;
9938;SDS011;5008;50.656;7.188;2022-07-22T13:27:18;10.57;;;9.63;;
9938;SDS011;5008;50.656;7.188;2022-07-22T13:29:45;8.77;;;7.97;;
9938;SDS011;5008;50.656;7.188;2022-07-22T13:32:12;9.40;;;8.63;;
9938;SDS011;5008;50.656;7.188;2022-07-22T13:34:40;8.52;;;7.82;;
9938;SDS011;5008;50.656;7.188;2022-07-22T13:37:07;8.38;;;7.57;;
9938;SDS011;5008;50.656;7.188;2022-07-22T13:39:35;9.85;;;7.85;;
9938;SDS011;5008;50.656;7.188;2022-07-22T13:42:03;7.95;;;7.35;;
9938;SDS011;5008;50.656;7.188;2022-07-22T13:44:31;8.02;;;7.43;;
9938;SDS011;5008;50.656;7.188;2022-07-22T13:47:00;7.30;;;6.70;;
9938;SDS011;5008;50.656;7.188;2022-07-22T13:49:27;7.35;;;6.65;;
9938;SDS011;5008;50.656;7.188;2022-07-22T13:54:29;7.43;;;6.82;;
9938;SDS011;5008;50.656;7.188;2022-07-22T13:56:57;7.75;;;7.15;;
9938;SDS011;5008;50.656;7.188;2022-07-22T13:59:26;7.30;;;6.70;;
9938;SDS011;5008;50.656;7.188;2022-07-22T14:01:56;7.25;;;6.65;;
9938;SDS011;5008;50.656;7.188;2022-07-22T14:04:23;7.75;;;7.05;;
9938;SDS011;5008;50.656;7.188;2022-07-22T14:06:50;6.90;;;6.35;;
9938;SDS011;5008;50.656;7.188;2022-07-22T14:09:17;6.90;;;6.25;;
9938;SDS011;5008;50.656;7.188;2022-07-22T14:11:44;6.80;;;6.30;;
9938;SDS011;5008;50.656;7.188;2022-07-22T14:14:11;9.55;;;8.75;;
9938;SDS011;5008;50.656;7.188;2022-07-22T14:16:39;6.82;;;6.13;;
9938;SDS011;5008;50.656;7.188;2022-07-22T14:19:09;7.13;;;6.53;;
9938;SDS011;5008;50.656;7.188;2022-07-22T14:21:39;7.47;;;6.88;;
9938;SDS011;5008;50.656;7.188;2022-07-22T14:24:08;7.68;;;7.07;;
9938;SDS011;5008;50.656;7.188;2022-07-22T14:26:35;8.13;;;7.47;;
9938;SDS011;5008;50.656;7.188;2022-07-22T14:29:03;6.78;;;6.28;;
9938;SDS011;5008;50.656;7.188;2022-07-22T14:31:32;7.40;;;6.80;;
9938;SDS011;5008;50.656;7.188;2022-07-22T14:34:00;7.30;;;6.70;;
9938;SDS011;5008;50.656;7.188;2022-07-22T14:36:28;6.25;;;5.82;;
9938;SDS011;5008;50.656;7.188;2022-07-22T14:38:55;7.18;;;6.47;;
9938;SDS011;5008;50.656;7.188;2022-07-22T14:41:23;8.23;;;7.53;;
9938;SDS011;5008;50.656;7.188;2022-07-22T14:43:50;6.90;;;6.30;;
9938;SDS011;5008;50.656;7.188;2022-07-22T14:46:17;6.35;;;5.85;;
9938;SDS011;5008;50.656;7.188;2022-07-22T14:48:44;7.05;;;6.45;;
9938;SDS011;5008;50.656;7.188;2022-07-22T14:51:13;6.65;;;6.15;;
9938;SDS011;5008;50.656;7.188;2022-07-22T14:53:42;6.70;;;6.20;;
9938;SDS011;5008;50.656;7.188;2022-07-22T14:56:08;6.07;;;5.57;;
9938;SDS011;5008;50.656;7.188;2022-07-22T14:58:35;6.28;;;5.78;;
9938;SDS011;5008;50.656;7.188;2022-07-22T15:01:02;4.75;;;4.45;;
9938;SDS011;5008;50.656;7.188;2022-07-22T15:03:40;5.40;;;5.00;;
9938;SDS011;5008;50.656;7.188;2022-07-22T15:06:07;5.18;;;4.88;;
9938;SDS011;5008;50.656;7.188;2022-07-22T15:08:34;5.38;;;4.97;;
9938;SDS011;5008;50.656;7.188;2022-07-22T15:11:03;4.75;;;4.38;;
9938;SDS011;5008;50.656;7.188;2022-07-22T15:13:30;6.43;;;5.82;;
9938;SDS011;5008;50.656;7.188;2022-07-22T15:15:57;6.10;;;5.68;;
9938;SDS011;5008;50.656;7.188;2022-07-22T15:18:25;6.47;;;5.97;;
9938;SDS011;5008;50.656;7.188;2022-07-22T15:20:52;6.38;;;5.85;;
9938;SDS011;5008;50.656;7.188;2022-07-22T15:23:20;6.05;;;5.55;;
9938;SDS011;5008;50.656;7.188;2022-07-22T15:25:48;6.72;;;6.13;;
9938;SDS011;5008;50.656;7.188;2022-07-22T15:28:16;5.35;;;4.95;;
9938;SDS011;5008;50.656;7.188;2022-07-22T15:30:43;6.10;;;5.60;;
9938;SDS011;5008;50.656;7.188;2022-07-22T15:33:10;6.30;;;5.65;;
9938;SDS011;5008;50.656;7.188;2022-07-22T15:35:45;5.90;;;5.40;;
9938;SDS011;5008;50.656;7.188;2022-07-22T15:38:12;5.97;;;5.47;;
9938;SDS011;5008;50.656;7.188;2022-07-22T15:40:39;5.63;;;5.22;;
9938;SDS011;5008;50.656;7.188;2022-07-22T15:43:06;5.90;;;5.40;;
9938;SDS011;5008;50.656;7.188;2022-07-22T15:45:34;4.95;;;4.65;;
9938;SDS011;5008;50.656;7.188;2022-07-22T15:48:02;5.20;;;4.80;;
9938;SDS011;5008;50.656;7.188;2022-07-22T15:50:30;5.10;;;4.70;;